createdAt,value
2023-03-24T00:00:56.073Z,10.46
2023-03-24T00:03:22.775Z,10.31
2023-03-24T00:05:49.356Z,10.63
2023-03-24T00:08:15.912Z,11.07
2023-03-24T00:10:42.658Z,10.49
2023-03-24T00:13:09.326Z,11.10
2023-03-24T00:15:39.133Z,10.89
2023-03-24T00:18:05.751Z,11.12
2023-03-24T00:20:32.297Z,11.55
2023-03-24T00:22:59.692Z,11.98
2023-03-24T00:25:26.462Z,11.95
2023-03-24T00:27:53.081Z,11.66
2023-03-24T00:30:19.599Z,11.86
2023-03-24T00:32:46.575Z,12.55
2023-03-24T00:35:13.224Z,12.59
2023-03-24T00:37:40.039Z,12.36
2023-03-24T00:40:06.852Z,12.43
2023-03-24T00:42:33.307Z,11.94
2023-03-24T00:45:00.185Z,11.18
2023-03-24T00:47:26.751Z,11.15
2023-03-24T00:49:53.438Z,10.41
2023-03-24T00:52:20.166Z,10.82
2023-03-24T00:54:46.745Z,11.77
2023-03-24T00:57:13.593Z,11.23
2023-03-24T00:59:42.591Z,11.43
2023-03-24T01:02:11.413Z,11.92
2023-03-24T01:04:38.761Z,11.13
2023-03-24T01:07:05.339Z,11.82
2023-03-24T01:09:31.962Z,11.09
2023-03-24T01:11:58.474Z,11.40
2023-03-24T01:14:25.304Z,11.56
2023-03-24T01:16:51.898Z,11.38
2023-03-24T01:19:19.832Z,11.87
2023-03-24T01:21:46.370Z,12.13
2023-03-24T01:24:12.989Z,11.64
2023-03-24T01:26:39.527Z,11.83
2023-03-24T01:29:06.106Z,12.17
2023-03-24T01:31:32.816Z,11.96
2023-03-24T01:33:59.412Z,12.29
2023-03-24T01:36:26.041Z,11.87
2023-03-24T01:38:52.540Z,11.69
2023-03-24T01:41:19.410Z,12.00
2023-03-24T01:43:45.964Z,12.71
2023-03-24T01:46:12.534Z,12.49
2023-03-24T01:48:39.078Z,12.38
2023-03-24T01:51:05.965Z,12.25
2023-03-24T01:53:32.636Z,12.45
2023-03-24T01:55:59.673Z,12.22
2023-03-24T01:58:26.237Z,12.03
2023-03-24T02:00:52.809Z,11.91
2023-03-24T02:03:19.399Z,11.91
2023-03-24T02:05:45.899Z,11.98
2023-03-24T02:08:12.473Z,11.65
2023-03-24T02:10:39.020Z,11.52
2023-03-24T02:13:05.565Z,10.96
2023-03-24T02:15:32.841Z,10.86
2023-03-24T02:17:59.662Z,11.30
2023-03-24T02:20:26.236Z,11.61
2023-03-24T02:22:52.824Z,11.24
2023-03-24T02:25:19.307Z,10.99
2023-03-24T02:27:45.820Z,11.36
2023-03-24T02:30:12.613Z,10.91
2023-03-24T02:32:39.514Z,10.59
2023-03-24T02:35:06.138Z,11.16
2023-03-24T02:37:32.975Z,11.04
2023-03-24T02:39:59.508Z,10.48
2023-03-24T02:42:26.031Z,10.67
2023-03-24T02:44:53.012Z,10.88
2023-03-24T02:47:19.474Z,10.59
2023-03-24T02:49:46.119Z,10.82
2023-03-24T02:52:14.866Z,10.99
2023-03-24T02:54:41.374Z,11.08
2023-03-24T02:57:08.014Z,10.59
2023-03-24T02:59:34.539Z,10.53
2023-03-24T03:02:01.031Z,10.78
2023-03-24T03:04:29.306Z,10.85
2023-03-24T03:06:56.209Z,10.31
2023-03-24T03:09:22.749Z,9.96
2023-03-24T03:11:50.377Z,10.08
2023-03-24T03:14:16.999Z,10.31
2023-03-24T03:16:43.590Z,10.08
2023-03-24T03:19:12.141Z,10.30
2023-03-24T03:21:38.671Z,10.77
2023-03-24T03:24:05.197Z,11.18
2023-03-24T03:26:32.095Z,10.95
2023-03-24T03:28:58.714Z,11.77
2023-03-24T03:31:25.611Z,11.36
2023-03-24T03:33:52.107Z,11.71
2023-03-24T03:36:18.696Z,11.94
2023-03-24T03:38:45.322Z,12.34
2023-03-24T03:41:11.820Z,11.54
2023-03-24T03:43:38.451Z,11.60
2023-03-24T03:46:04.959Z,11.50
2023-03-24T03:48:31.696Z,12.32
2023-03-24T03:51:10.242Z,12.68
2023-03-24T03:53:40.059Z,11.82
2023-03-24T03:56:06.697Z,11.85
2023-03-24T03:58:33.346Z,12.23
2023-03-24T04:00:59.884Z,11.85
2023-03-24T04:03:26.466Z,12.18
2023-03-24T04:05:53.192Z,11.59
2023-03-24T04:08:19.758Z,11.79
2023-03-24T04:10:46.446Z,11.49
2023-03-24T04:13:13.123Z,11.63
2023-03-24T04:15:39.942Z,11.53
2023-03-24T04:18:06.642Z,11.51
2023-03-24T04:20:33.115Z,11.60
2023-03-24T04:22:59.766Z,11.67
2023-03-24T04:25:26.599Z,11.54
2023-03-24T04:27:53.159Z,11.89
2023-03-24T04:30:20.006Z,11.66
2023-03-24T04:32:46.631Z,11.31
2023-03-24T04:35:13.635Z,11.25
2023-03-24T04:37:40.171Z,11.12
2023-03-24T04:40:06.960Z,11.11
2023-03-24T04:42:33.525Z,11.49
2023-03-24T04:45:00.111Z,11.50
2023-03-24T04:47:26.620Z,10.75
2023-03-24T04:49:53.441Z,11.34
2023-03-24T04:52:20.204Z,10.80
2023-03-24T04:54:46.810Z,10.90
2023-03-24T04:57:13.352Z,11.32
2023-03-24T04:59:39.839Z,11.04
2023-03-24T05:02:06.424Z,10.83
2023-03-24T05:04:34.056Z,10.91
2023-03-24T05:07:00.810Z,10.44
2023-03-24T05:09:27.417Z,10.96
2023-03-24T05:11:53.969Z,10.46
2023-03-24T05:14:23.003Z,10.83
2023-03-24T05:16:50.609Z,10.94
2023-03-24T05:19:19.492Z,11.16
2023-03-24T05:21:46.982Z,10.42
2023-03-24T05:24:14.256Z,10.72
2023-03-24T05:26:40.978Z,10.51
2023-03-24T05:29:10.316Z,10.77
2023-03-24T05:31:36.868Z,11.26
2023-03-24T05:34:03.770Z,11.14
2023-03-24T05:36:30.605Z,10.86
2023-03-24T05:38:57.300Z,10.87
2023-03-24T05:41:24.699Z,11.24
2023-03-24T05:43:51.340Z,11.69
2023-03-24T05:46:18.053Z,11.47
2023-03-24T05:48:44.842Z,11.77
2023-03-24T05:51:11.743Z,11.33
2023-03-24T05:53:39.642Z,11.33
2023-03-24T05:56:06.242Z,10.94
2023-03-24T05:58:33.527Z,11.60
2023-03-24T06:01:00.161Z,11.62
2023-03-24T06:03:27.868Z,12.52
2023-03-24T06:05:54.657Z,12.26
2023-03-24T06:08:22.121Z,12.76
2023-03-24T06:10:49.902Z,13.34
2023-03-24T06:13:16.745Z,13.67
2023-03-24T06:15:45.910Z,13.39
2023-03-24T06:18:12.883Z,12.82
2023-03-24T06:20:39.462Z,12.56
2023-03-24T06:23:06.480Z,11.93
2023-03-24T06:25:33.117Z,11.51
2023-03-24T06:28:00.693Z,11.01
2023-03-24T06:30:27.408Z,10.72
2023-03-24T06:32:54.323Z,10.60
2023-03-24T06:35:21.951Z,9.76
2023-03-24T06:37:51.378Z,9.48
2023-03-24T06:40:18.164Z,9.57
2023-03-24T06:42:45.620Z,10.34
2023-03-24T06:45:12.412Z,9.81
2023-03-24T06:47:40.143Z,9.27
2023-03-24T06:50:06.892Z,8.85
2023-03-24T06:52:38.019Z,9.06
2023-03-24T06:55:04.724Z,8.58
2023-03-24T06:57:31.384Z,9.33
2023-03-24T06:59:59.103Z,9.07
2023-03-24T07:02:25.722Z,8.42
2023-03-24T07:04:52.636Z,8.53
2023-03-24T07:07:56.896Z,8.53
2023-03-24T07:10:06.119Z,8.36
2023-03-24T07:12:35.052Z,7.61
2023-03-24T07:15:02.174Z,8.69
2023-03-24T07:17:32.420Z,9.39
2023-03-24T07:19:59.288Z,8.52
2023-03-24T07:22:26.031Z,7.79
2023-03-24T07:24:54.551Z,7.86
2023-03-24T07:27:21.594Z,7.45
2023-03-24T07:29:49.165Z,7.82
2023-03-24T07:32:16.711Z,8.00
2023-03-24T07:34:45.292Z,7.89
2023-03-24T07:37:12.171Z,7.64
2023-03-24T07:39:38.659Z,8.28
2023-03-24T07:42:06.518Z,7.91
2023-03-24T07:44:35.511Z,7.79
2023-03-24T07:47:05.398Z,8.30
2023-03-24T07:49:39.387Z,7.42
2023-03-24T07:52:06.565Z,8.36
2023-03-24T07:54:40.878Z,9.54
2023-03-24T07:57:10.872Z,8.36
2023-03-24T07:59:38.347Z,7.58
2023-03-24T08:02:07.039Z,7.27
2023-03-24T08:04:35.372Z,8.40
2023-03-24T08:10:17.166Z,8.14
2023-03-24T08:12:45.551Z,7.43
2023-03-24T08:15:12.391Z,7.36
2023-03-24T08:17:39.001Z,7.23
2023-03-24T08:20:06.110Z,6.79
2023-03-24T08:22:33.006Z,6.24
2023-03-24T08:24:59.869Z,6.72
2023-03-24T08:27:28.547Z,6.60
2023-03-24T08:29:55.222Z,6.59
2023-03-24T08:32:24.486Z,7.14
2023-03-24T08:34:51.361Z,6.47
2023-03-24T08:37:18.992Z,6.83
2023-03-24T08:39:45.828Z,6.32
2023-03-24T08:42:14.712Z,6.39
2023-03-24T08:44:41.558Z,5.93
2023-03-24T08:47:08.594Z,6.09
2023-03-24T08:49:35.256Z,6.02
2023-03-24T08:52:02.598Z,6.57
2023-03-24T08:54:29.517Z,6.77
2023-03-24T08:56:56.809Z,5.68
2023-03-24T08:59:23.572Z,5.73
2023-03-24T09:01:51.050Z,5.56
2023-03-24T09:04:17.667Z,6.05
2023-03-24T09:06:44.489Z,6.04
2023-03-24T09:09:11.424Z,6.34
2023-03-24T09:11:38.659Z,5.97
2023-03-24T09:14:05.955Z,6.05
2023-03-24T09:16:33.146Z,6.14
2023-03-24T09:18:59.812Z,6.29
2023-03-24T09:21:26.775Z,6.17
2023-03-24T09:23:53.302Z,6.45
2023-03-24T09:26:19.920Z,6.07
2023-03-24T09:28:48.910Z,6.35
2023-03-24T09:31:15.920Z,6.51
2023-03-24T09:33:42.573Z,6.34
2023-03-24T09:36:09.160Z,6.72
2023-03-24T09:38:36.045Z,7.44
2023-03-24T09:41:05.762Z,6.88
2023-03-24T09:43:35.852Z,7.01
2023-03-24T09:46:08.376Z,6.45
2023-03-24T09:48:36.342Z,6.76
2023-03-24T09:51:02.844Z,6.99
2023-03-24T09:53:33.095Z,6.87
2023-03-24T09:55:59.671Z,6.95
2023-03-24T09:58:26.482Z,7.17
2023-03-24T10:00:54.601Z,7.01
2023-03-24T10:03:22.898Z,7.27
2023-03-24T10:05:50.385Z,6.94
2023-03-24T10:08:17.499Z,7.22
2023-03-24T10:10:48.138Z,7.19
2023-03-24T10:13:15.144Z,6.91
2023-03-24T10:15:41.855Z,7.22
2023-03-24T10:18:08.735Z,7.09
2023-03-24T10:20:35.416Z,6.93
2023-03-24T10:25:43.587Z,6.53
2023-03-24T10:28:10.422Z,6.55
2023-03-24T10:30:37.115Z,6.73
2023-03-24T10:33:04.039Z,6.55
2023-03-24T10:35:30.942Z,7.02
2023-03-24T10:37:57.778Z,6.86
2023-03-24T10:40:24.526Z,7.18
2023-03-24T10:43:07.312Z,7.34
2023-03-24T10:45:36.831Z,7.93
2023-03-24T10:48:04.057Z,8.28
2023-03-24T10:50:31.450Z,10.06
2023-03-24T10:52:58.334Z,10.98
2023-03-24T10:55:24.814Z,11.68
2023-03-24T10:57:52.109Z,7.49
2023-03-24T11:00:19.095Z,8.74
2023-03-24T11:02:45.950Z,6.88
2023-03-24T11:05:17.232Z,6.75
2023-03-24T11:07:45.058Z,6.81
2023-03-24T11:10:12.506Z,7.94
2023-03-24T11:12:39.138Z,9.26
2023-03-24T11:15:18.024Z,8.33
2023-03-24T11:17:48.374Z,7.29
2023-03-24T11:20:16.735Z,5.44
2023-03-24T11:22:43.478Z,6.08
2023-03-24T11:25:10.388Z,5.25
2023-03-24T11:27:38.011Z,6.16
2023-03-24T11:30:04.472Z,4.91
2023-03-24T11:32:32.032Z,5.10
2023-03-24T11:34:58.775Z,4.40
2023-03-24T11:37:25.692Z,4.49
2023-03-24T11:39:52.274Z,4.34
2023-03-24T11:42:18.954Z,4.60
2023-03-24T11:44:45.457Z,4.41
2023-03-24T11:47:11.985Z,4.44
2023-03-24T11:49:38.691Z,4.53
2023-03-24T11:52:05.520Z,4.24
2023-03-24T11:54:33.137Z,4.14
2023-03-24T11:56:59.808Z,3.97
2023-03-24T11:59:28.312Z,4.05
2023-03-24T12:01:54.798Z,4.38
2023-03-24T12:04:22.235Z,4.55
2023-03-24T12:06:50.741Z,4.43
2023-03-24T12:09:23.265Z,4.77
2023-03-24T12:11:50.445Z,4.34
2023-03-24T12:14:17.129Z,4.42
2023-03-24T12:16:43.910Z,4.44
2023-03-24T12:19:13.089Z,4.44
2023-03-24T12:21:39.994Z,5.17
2023-03-24T12:24:06.964Z,4.56
2023-03-24T12:26:33.831Z,4.12
2023-03-24T12:29:00.391Z,4.20
2023-03-24T12:31:27.383Z,4.33
2023-03-24T12:33:54.077Z,5.16
2023-03-24T12:36:20.743Z,4.98
2023-03-24T12:38:47.398Z,4.90
2023-03-24T12:41:13.986Z,5.51
2023-03-24T12:43:40.550Z,5.13
2023-03-24T12:46:07.489Z,4.67
2023-03-24T12:48:36.522Z,4.62
2023-03-24T12:51:03.368Z,4.72
2023-03-24T12:53:30.289Z,4.37
2023-03-24T12:55:57.656Z,4.14
2023-03-24T12:58:24.526Z,3.46
2023-03-24T13:00:54.016Z,3.36
2023-03-24T13:03:21.037Z,3.29
2023-03-24T13:05:48.492Z,3.40
2023-03-24T13:08:17.581Z,3.25
2023-03-24T13:10:44.108Z,4.03
2023-03-24T13:13:14.351Z,3.41
2023-03-24T13:15:40.919Z,3.93
2023-03-24T13:18:09.117Z,5.09
2023-03-24T13:20:37.293Z,4.92
2023-03-24T13:23:03.766Z,4.62
2023-03-24T13:25:31.029Z,5.00
2023-03-24T13:27:57.838Z,5.25
2023-03-24T13:30:26.524Z,5.22
2023-03-24T13:32:53.351Z,4.71
2023-03-24T13:35:20.255Z,4.60
2023-03-24T13:37:46.849Z,4.38
2023-03-24T13:40:14.194Z,4.56
2023-03-24T13:42:40.806Z,4.76
2023-03-24T13:45:08.274Z,4.49
2023-03-24T13:47:35.068Z,4.21
2023-03-24T13:50:01.905Z,4.04
2023-03-24T13:52:28.684Z,3.64
2023-03-24T13:54:57.706Z,3.92
2023-03-24T13:57:24.487Z,3.92
2023-03-24T13:59:51.295Z,4.26
2023-03-24T14:02:18.314Z,3.93
2023-03-24T14:04:45.861Z,3.98
2023-03-24T14:07:12.381Z,3.61
2023-03-24T14:09:39.439Z,3.85
2023-03-24T14:12:07.449Z,3.53
2023-03-24T14:14:35.191Z,3.40
2023-03-24T14:17:02.061Z,3.42
2023-03-24T14:19:28.827Z,3.64
2023-03-24T14:21:55.684Z,3.50
2023-03-24T14:24:22.316Z,3.14
2023-03-24T14:26:51.389Z,3.35
2023-03-24T14:29:18.050Z,3.77
2023-03-24T14:31:44.833Z,3.41
2023-03-24T14:34:11.819Z,3.26
2023-03-24T14:36:38.554Z,3.01
2023-03-24T14:39:05.141Z,3.06
2023-03-24T14:41:33.476Z,2.93
2023-03-24T14:44:00.280Z,3.08
2023-03-24T14:46:26.948Z,3.83
2023-03-24T14:48:54.259Z,3.47
2023-03-24T14:51:21.156Z,3.09
2023-03-24T14:53:48.284Z,3.53
2023-03-24T14:56:14.738Z,3.90
2023-03-24T14:58:42.570Z,3.76
2023-03-24T15:01:09.669Z,3.74
2023-03-24T15:03:36.408Z,3.71
2023-03-24T15:06:04.391Z,3.85
2023-03-24T15:08:33.872Z,3.91
2023-03-24T15:11:00.858Z,3.89
2023-03-24T15:13:27.383Z,3.76
2023-03-24T15:16:01.445Z,4.21
2023-03-24T15:18:28.107Z,4.80
2023-03-24T15:20:54.612Z,4.15
2023-03-24T15:23:22.416Z,3.90
2023-03-24T15:25:49.126Z,3.97
2023-03-24T15:28:18.304Z,3.88
2023-03-24T15:30:45.175Z,4.73
2023-03-24T15:33:12.012Z,4.12
2023-03-24T15:35:40.588Z,4.34
2023-03-24T15:38:07.474Z,4.56
2023-03-24T15:40:36.683Z,4.61
2023-03-24T15:43:04.498Z,4.23
2023-03-24T15:45:31.116Z,4.09
2023-03-24T15:47:59.477Z,4.91
2023-03-24T15:50:27.610Z,4.88
2023-03-24T15:52:54.136Z,3.69
2023-03-24T15:55:20.679Z,4.13
2023-03-24T15:57:48.535Z,3.83
2023-03-24T16:00:16.107Z,3.76
2023-03-24T16:02:43.505Z,3.31
2023-03-24T16:05:11.299Z,3.48
2023-03-24T16:10:06.682Z,2.25
2023-03-24T16:12:33.442Z,2.13
2023-03-24T16:15:00.086Z,1.55
2023-03-24T16:17:27.176Z,1.34
2023-03-24T16:19:54.002Z,1.58
2023-03-24T16:22:20.766Z,1.64
2023-03-24T16:24:47.281Z,3.83
2023-03-24T16:27:13.863Z,1.97
2023-03-24T16:29:40.602Z,1.51
2023-03-24T16:32:07.631Z,1.60
2023-03-24T16:34:34.398Z,1.44
2023-03-24T16:37:02.111Z,1.17
2023-03-24T16:39:28.725Z,1.32
2023-03-24T16:41:56.213Z,1.41
2023-03-24T16:44:29.893Z,1.28
2023-03-24T16:46:56.886Z,0.91
2023-03-24T16:49:25.796Z,1.11
2023-03-24T16:51:52.342Z,1.07
2023-03-24T16:54:18.908Z,1.13
2023-03-24T16:56:46.480Z,1.19
2023-03-24T16:59:13.323Z,1.21
2023-03-24T17:01:39.922Z,1.25
2023-03-24T17:04:07.089Z,1.31
2023-03-24T17:06:36.022Z,1.51
2023-03-24T17:09:02.562Z,1.57
2023-03-24T17:11:29.356Z,1.57
2023-03-24T17:13:56.214Z,1.38
2023-03-24T17:16:23.088Z,0.94
2023-03-24T17:18:49.951Z,0.85
2023-03-24T17:21:17.393Z,0.77
2023-03-24T17:23:45.535Z,1.08
2023-03-24T17:26:12.857Z,0.95
2023-03-24T17:28:39.869Z,1.10
2023-03-24T17:31:06.537Z,1.07
2023-03-24T17:33:35.689Z,1.25
2023-03-24T17:36:02.307Z,1.20
2023-03-24T17:38:31.474Z,1.01
2023-03-24T17:41:00.191Z,1.06
2023-03-24T17:43:26.988Z,1.36
2023-03-24T17:45:54.512Z,1.45
2023-03-24T17:48:21.342Z,1.08
2023-03-24T17:50:48.166Z,1.51
2023-03-24T17:53:15.189Z,1.50
2023-03-24T17:55:42.595Z,1.31
2023-03-24T17:58:09.434Z,1.36
2023-03-24T18:00:38.383Z,1.36
2023-03-24T18:03:05.346Z,1.49
2023-03-24T18:05:32.183Z,1.34
2023-03-24T18:07:58.904Z,1.77
2023-03-24T18:10:25.946Z,2.06
2023-03-24T18:12:52.893Z,2.58
2023-03-24T18:15:19.761Z,2.38
2023-03-24T18:17:47.233Z,2.99
2023-03-24T18:20:13.769Z,2.69
2023-03-24T18:22:41.332Z,2.38
2023-03-24T18:25:08.035Z,2.27
2023-03-24T18:27:34.648Z,2.38
2023-03-24T18:30:01.212Z,2.49
2023-03-24T18:32:27.883Z,2.22
2023-03-24T18:34:57.821Z,2.04
2023-03-24T18:37:24.599Z,2.00
2023-03-24T18:42:46.788Z,2.46
2023-03-24T18:45:13.658Z,2.73
2023-03-24T18:50:09.622Z,2.30
2023-03-24T18:52:36.704Z,2.44
2023-03-24T18:55:03.387Z,2.21
2023-03-24T18:57:30.206Z,2.54
2023-03-24T18:59:57.887Z,2.66
2023-03-24T19:02:26.918Z,2.72
2023-03-24T19:04:53.645Z,2.40
2023-03-24T19:07:21.045Z,1.89
2023-03-24T19:09:47.593Z,2.23
2023-03-24T19:12:15.472Z,2.48
2023-03-24T19:14:42.045Z,2.56
2023-03-24T19:17:10.666Z,2.32
2023-03-24T19:19:39.334Z,2.65
2023-03-24T19:22:05.865Z,2.82
2023-03-24T19:24:32.491Z,3.59
2023-03-24T19:26:59.827Z,3.33
2023-03-24T19:29:26.666Z,2.92
2023-03-24T19:31:55.735Z,2.81
2023-03-24T19:34:22.276Z,2.77
2023-03-24T19:36:51.261Z,2.27
2023-03-24T19:39:19.388Z,2.12
2023-03-24T19:41:48.184Z,2.34
2023-03-24T19:44:15.039Z,1.86
2023-03-24T19:46:41.671Z,2.07
2023-03-24T19:49:08.293Z,2.07
2023-03-24T19:51:35.265Z,2.79
2023-03-24T19:54:03.021Z,4.51
2023-03-24T19:56:30.773Z,5.71
2023-03-24T19:58:57.744Z,5.08
2023-03-24T20:01:24.468Z,4.70
2023-03-24T20:03:51.948Z,3.15
2023-03-24T20:06:19.830Z,2.71
2023-03-24T20:08:47.042Z,2.92
2023-03-24T20:11:13.707Z,2.40
2023-03-24T20:13:40.591Z,2.52
2023-03-24T20:16:07.255Z,1.88
2023-03-24T20:18:34.146Z,1.93
2023-03-24T20:21:02.850Z,2.68
2023-03-24T20:23:29.756Z,3.04
2023-03-24T20:25:56.376Z,2.88
2023-03-24T20:28:24.143Z,1.78
2023-03-24T20:30:50.687Z,1.56
2023-03-24T20:33:17.594Z,1.67
2023-03-24T20:35:46.720Z,1.72
2023-03-24T20:38:15.824Z,1.77
2023-03-24T20:40:42.663Z,2.89
2023-03-24T20:43:09.410Z,2.92
2023-03-24T20:45:36.227Z,2.34
2023-03-24T20:48:02.906Z,3.63
2023-03-24T20:50:32.397Z,1.97
2023-03-24T20:52:58.981Z,1.93
2023-03-24T20:55:25.609Z,1.96
2023-03-24T20:57:52.168Z,2.17
2023-03-24T21:00:19.059Z,1.85
2023-03-24T21:02:45.998Z,1.89
2023-03-24T21:05:12.519Z,1.73
2023-03-24T21:07:40.384Z,1.63
2023-03-24T21:10:06.985Z,1.63
2023-03-24T21:12:33.825Z,1.65
2023-03-24T21:15:00.595Z,1.63
2023-03-24T21:17:27.488Z,1.79
2023-03-24T21:19:54.869Z,1.66
2023-03-24T21:22:23.966Z,2.16
2023-03-24T21:24:50.654Z,1.72
2023-03-24T21:27:17.942Z,1.79
2023-03-24T21:29:46.922Z,1.57
2023-03-24T21:32:13.671Z,2.60
2023-03-24T21:34:40.515Z,2.03
2023-03-24T21:39:52.408Z,1.93
2023-03-24T21:42:19.021Z,1.83
2023-03-24T21:44:47.749Z,1.62
2023-03-24T21:47:14.439Z,1.87
2023-03-24T21:49:41.194Z,2.04
2023-03-24T21:52:07.879Z,1.99
2023-03-24T21:54:34.600Z,2.03
2023-03-24T21:57:01.334Z,1.76
2023-03-24T21:59:27.871Z,2.01
2023-03-24T22:01:54.551Z,2.16
2023-03-24T22:04:21.448Z,2.32
2023-03-24T22:06:49.030Z,2.59
2023-03-24T22:09:15.909Z,2.57
2023-03-24T22:11:44.423Z,2.41
2023-03-24T22:14:12.375Z,2.06
2023-03-24T22:16:39.192Z,2.38
2023-03-24T22:19:05.776Z,2.08
2023-03-24T22:21:32.341Z,1.83
2023-03-24T22:23:59.127Z,2.18
2023-03-24T22:26:28.139Z,2.80
2023-03-24T22:28:54.792Z,1.91
2023-03-24T22:31:22.356Z,1.81
2023-03-24T22:33:49.185Z,1.81
2023-03-24T22:36:16.049Z,1.85
2023-03-24T22:38:44.578Z,1.66
2023-03-24T22:41:11.198Z,1.66
2023-03-24T22:43:37.766Z,2.18
2023-03-24T22:46:04.669Z,2.01
2023-03-24T22:48:33.734Z,1.94
2023-03-24T22:51:00.680Z,2.04
2023-03-24T22:53:29.339Z,1.67
2023-03-24T22:55:55.914Z,1.74
2023-03-24T22:58:22.764Z,1.90
2023-03-24T23:00:49.545Z,2.00
2023-03-24T23:03:16.922Z,2.19
2023-03-24T23:05:43.872Z,2.40
2023-03-24T23:08:10.687Z,2.27
2023-03-24T23:10:38.101Z,2.20
2023-03-24T23:13:07.094Z,1.96
2023-03-24T23:15:34.661Z,2.04
2023-03-24T23:18:04.525Z,2.21
2023-03-24T23:20:31.268Z,1.80
2023-03-24T23:22:58.130Z,1.81
2023-03-24T23:25:24.915Z,1.39
2023-03-24T23:27:51.661Z,1.23
2023-03-24T23:30:18.542Z,1.38
2023-03-24T23:32:45.392Z,1.35
2023-03-24T23:35:11.918Z,1.12
2023-03-24T23:37:59.430Z,1.20
2023-03-24T23:40:26.146Z,1.05
2023-03-24T23:42:52.963Z,0.95
2023-03-24T23:45:19.796Z,1.01
2023-03-24T23:47:46.821Z,0.96
2023-03-24T23:50:18.413Z,0.85
2023-03-24T23:52:45.034Z,0.92
2023-03-24T23:55:11.757Z,1.04
2023-03-24T23:57:38.307Z,1.09
